Time;durP1;ratioP1;P1;durP2;ratioP2;P2;SDS_P1;SDS_P2;PMS_P1;PMS_P2;Temp;Humidity;BMP_temperature;BMP_pressure;BME280_temperature;BME280_humidity;BME280_pressure;Samples;Min_cycle;Max_cycle;Signal;HPM_P1;HPM_P2
2022/09/17 00:01:55;;;;;;;18.45;3.40;;;13.90;99.90;;;;;;5010790;28;20054;-62
2022/09/17 00:04:21;;;;;;;22.40;4.28;;;14.00;99.90;;;;;;5010660;28;20049;-62
2022/09/17 00:06:47;;;;;;;17.70;2.65;;;13.80;99.90;;;;;;5010771;28;20117;-61
2022/09/17 00:09:12;;;;;;;26.63;3.83;;;13.20;1.00;;;;;;5015725;28;20641;-61
2022/09/17 00:11:40;;;;;;;16.70;2.50;;;13.10;47.80;;;;;;5027861;28;20054;-61
2022/09/17 00:14:08;;;;;;;17.55;2.67;;;12.70;88.40;;;;;;5030654;28;20048;-61
2022/09/17 00:16:40;;;;;;;10.80;2.80;;;13.50;99.90;;;;;;5030748;28;20041;-61
2022/09/17 00:19:11;;;;;;;15.30;2.03;;;13.20;99.90;;;;;;5031905;28;20441;-61
2022/09/17 00:21:36;;;;;;;3.25;1.48;;;13.10;99.90;;;;;;5034343;28;20171;-61
2022/09/17 00:24:05;;;;;;;9.07;1.48;;;13.10;1.00;;;;;;5034124;28;20120;-61
2022/09/17 00:26:32;;;;;;;8.93;1.70;;;13.00;1.00;;;;;;5033741;28;20041;-61
2022/09/17 00:28:59;;;;;;;14.77;2.53;;;12.80;54.30;;;;;;5033819;28;20495;-61
2022/09/17 00:31:25;;;;;;;14.75;2.30;;;12.80;99.90;;;;;;5033894;28;20049;-61
2022/09/17 00:33:52;;;;;;;12.80;2.40;;;12.90;99.90;;;;;;5034305;28;20042;-61
2022/09/17 00:36:19;;;;;;;16.88;2.78;;;13.20;99.90;;;;;;5033775;28;20029;-61
2022/09/17 00:38:48;;;;;;;27.70;2.63;;;13.20;99.90;;;;;;5033422;28;20446;-61
2022/09/17 00:41:14;;;;;;;11.15;2.17;;;13.40;99.90;;;;;;5033686;28;20099;-61
2022/09/17 00:43:57;;;;;;;7.38;1.30;;;13.30;99.90;;;;;;5033826;28;20042;-61
2022/09/17 00:46:31;;;;;;;7.95;1.20;;;13.40;99.90;;;;;;5033802;28;20048;-61
2022/09/17 00:49:00;;;;;;;6.65;1.60;;;13.10;99.90;;;;;;5033574;28;20060;-61
2022/09/17 00:51:40;;;;;;;8.75;1.98;;;13.00;1.00;;;;;;5033308;28;20046;-61
2022/09/17 00:54:08;;;;;;;9.77;2.35;;;13.20;99.90;;;;;;5033657;28;20048;-61
2022/09/17 00:56:35;;;;;;;9.65;2.08;;;13.20;99.90;;;;;;5031902;28;20442;-61
2022/09/17 00:59:02;;;;;;;13.65;2.17;;;13.20;99.90;;;;;;5030534;28;20447;-61
2022/09/17 01:01:29;;;;;;;12.07;2.08;;;13.10;99.90;;;;;;5032756;28;20061;-61
2022/09/17 01:03:54;;;;;;;12.98;2.20;;;13.30;99.90;;;;;;5032961;28;20047;-61
2022/09/17 01:06:43;;;;;;;9.85;2.13;;;13.20;99.90;;;;;;5018728;28;20120;-61
2022/09/17 01:09:30;;;;;;;17.75;2.60;;;13.40;99.90;;;;;;5033293;28;20127;-61
2022/09/17 01:12:14;;;;;;;11.05;2.38;;;13.60;99.90;;;;;;5032213;28;20061;-61
2022/09/17 01:15:10;;;;;;;10.95;2.83;;;13.50;99.90;;;;;;5032006;28;20411;-61
2022/09/17 01:17:58;;;;;;;8.07;1.88;;;13.60;1.00;;;;;;5032928;28;20171;-61
2022/09/17 01:20:55;;;;;;;12.32;2.28;;;13.70;1.00;;;;;;5033134;28;20423;-61
2022/09/17 01:23:47;;;;;;;21.60;4.15;;;13.60;45.30;;;;;;5032502;28;20041;-61
2022/09/17 01:26:21;;;;;;;15.75;2.90;;;12.70;99.90;;;;;;5032606;28;20045;-62
2022/09/17 01:28:56;;;;;;;11.35;2.53;;;12.40;99.90;;;;;;5032549;28;20491;-61
2022/09/17 01:31:50;;;;;;;10.15;1.60;;;12.30;99.90;;;;;;5026938;28;20059;-61
2022/09/17 01:34:34;;;;;;;10.68;2.03;;;12.30;99.90;;;;;;5033066;28;20494;-61
2022/09/17 01:37:29;;;;;;;14.05;2.60;;;12.40;99.90;;;;;;5033137;28;20041;-61
2022/09/17 01:40:07;;;;;;;25.73;3.85;;;12.70;99.90;;;;;;5018940;28;20041;-61
2022/09/17 01:43:03;;;;;;;22.15;3.65;;;13.10;99.90;;;;;;5032454;28;20076;-61
2022/09/17 01:45:42;;;;;;;20.42;3.00;;;13.00;99.90;;;;;;5006972;28;20074;-61
2022/09/17 01:48:16;;;;;;;20.42;3.63;;;12.70;99.90;;;;;;5032465;28;20116;-61
2022/09/17 01:50:59;;;;;;;14.63;2.97;;;13.10;99.90;;;;;;5032015;28;20113;-61
2022/09/17 01:53:33;;;;;;;22.05;2.90;;;13.10;99.90;;;;;;5032503;28;20040;-61
2022/09/17 01:56:02;;;;;;;22.42;2.88;;;13.30;99.90;;;;;;5014325;28;20495;-60
2022/09/17 01:58:36;;;;;;;15.65;2.60;;;13.20;99.90;;;;;;5031933;28;20531;-62
2022/09/17 02:01:05;;;;;;;13.05;2.55;;;13.30;99.90;;;;;;5031667;28;20045;-61
2022/09/17 02:03:36;;;;;;;7.13;1.70;;;13.30;99.90;;;;;;5032567;28;20407;-62
2022/09/17 02:06:20;;;;;;;9.55;2.33;;;13.40;99.90;;;;;;5032464;28;20048;-61
2022/09/17 02:08:52;;;;;;;9.57;2.28;;;13.60;99.90;;;;;;5031755;28;20446;-61
2022/09/17 02:11:19;;;;;;;12.70;2.88;;;13.70;99.90;;;;;;5031596;28;20057;-60
2022/09/17 02:14:02;;;;;;;17.80;2.90;;;13.80;99.90;;;;;;5030581;28;20406;-61
2022/09/17 02:16:31;;;;;;;12.70;2.50;;;14.00;99.90;;;;;;5034274;28;20056;-61
2022/09/17 02:19:12;;;;;;;18.90;2.92;;;13.90;99.90;;;;;;5031210;28;20038;-61
2022/09/17 02:21:49;;;;;;;14.23;3.15;;;13.80;1.00;;;;;;5020632;28;20091;-61
2022/09/17 02:24:33;;;;;;;17.00;3.30;;;13.80;99.90;;;;;;5031768;28;20439;-61
2022/09/17 02:27:07;;;;;;;19.70;3.38;;;13.70;1.00;;;;;;5031608;28;20080;-60
2022/09/17 02:29:43;;;;;;;18.83;3.28;;;13.70;19.50;;;;;;5031735;28;20060;-62
2022/09/17 02:32:09;;;;;;;;;;;13.70;99.90;;;;;;5032145;28;20049;-62
2022/09/17 02:34:35;;;;;;;10.93;2.50;;;13.80;95.70;;;;;;5031211;28;19970;-62
2022/09/17 02:37:03;;;;;;;16.35;3.13;;;14.00;1.00;;;;;;5031656;28;20037;-61
2022/09/17 02:39:29;;;;;;;22.00;4.32;;;14.10;1.00;;;;;;5030916;28;20787;-61
2022/09/17 02:42:16;;;;;;;14.77;2.78;;;13.80;1.00;;;;;;5030815;28;20124;-61
2022/09/17 02:45:14;;;;;;;19.58;3.75;;;13.60;1.00;;;;;;5031370;28;20045;-62
2022/09/17 02:48:06;;;;;;;18.45;2.95;;;13.70;99.90;;;;;;5013450;28;20099;-61
2022/09/17 02:50:44;;;;;;;25.30;4.28;;;13.60;99.90;;;;;;5031339;28;20084;-61
2022/09/17 02:53:38;;;;;;;18.45;2.90;;;13.40;78.80;;;;;;5030929;28;20033;-61
2022/09/17 02:56:38;;;;;;;17.02;3.00;;;13.50;20.70;;;;;;5016475;28;20037;-61
2022/09/17 02:59:23;;;;;;;12.90;2.78;;;13.40;86.20;;;;;;5031130;28;20503;-61
2022/09/17 03:02:02;;;;;;;11.43;2.30;;;13.50;99.90;;;;;;5030965;28;20052;-61
2022/09/17 03:04:28;;;;;;;16.33;2.60;;;13.70;99.90;;;;;;5031266;28;20041;-61
2022/09/17 03:06:54;;;;;;;7.28;1.88;;;13.70;1.00;;;;;;5031153;28;20433;-61
2022/09/17 03:09:20;;;;;;;20.52;2.38;;;13.80;99.90;;;;;;5030895;28;20118;-61
2022/09/17 03:11:46;;;;;;;11.35;2.83;;;13.60;1.00;;;;;;5030410;28;20061;-62
2022/09/17 03:14:11;;;;;;;14.32;2.80;;;13.20;74.50;;;;;;5030779;28;20052;-61
2022/09/17 03:16:37;;;;;;;15.93;2.55;;;12.90;99.90;;;;;;5031172;28;20045;-61
2022/09/17 03:19:03;;;;;;;11.82;2.08;;;13.10;21.40;;;;;;5031025;28;20052;-62
2022/09/17 03:21:28;;;;;;;10.18;1.70;;;13.10;48.60;;;;;;5031725;28;20060;-61
2022/09/17 03:23:54;;;;;;;10.23;2.15;;;13.00;59.70;;;;;;5039564;28;20096;-61
2022/09/17 03:26:20;;;;;;;8.82;1.60;;;13.00;99.90;;;;;;5030816;28;20069;-61
2022/09/17 03:28:45;;;;;;;18.95;2.30;;;12.90;99.90;;;;;;5030379;28;20076;-61
2022/09/17 03:31:11;;;;;;;11.27;1.80;;;13.10;99.90;;;;;;5030385;28;20041;-61
2022/09/17 03:33:36;;;;;;;7.28;2.13;;;13.10;99.90;;;;;;5031019;28;20120;-61
2022/09/17 03:36:02;;;;;;;7.95;1.20;;;13.20;99.90;;;;;;5031008;28;20099;-61
2022/09/17 03:38:27;;;;;;;10.63;1.77;;;13.10;1.00;;;;;;5030649;28;20402;-62
2022/09/17 03:41:06;;;;;;;8.25;1.95;;;12.60;99.90;;;;;;5030768;28;20037;-61
2022/09/17 03:43:32;;;;;;;9.55;1.73;;;12.60;99.90;;;;;;5030584;28;20104;-61
2022/09/17 03:45:58;;;;;;;7.00;1.58;;;12.70;1.00;;;;;;5030362;28;20045;-61
2022/09/17 03:48:24;;;;;;;15.48;2.83;;;13.00;1.00;;;;;;5030826;28;20045;-61
2022/09/17 03:50:49;;;;;;;8.98;2.35;;;13.00;99.90;;;;;;5030649;28;20045;-61
2022/09/17 03:53:15;;;;;;;6.68;1.73;;;13.10;1.00;;;;;;5033749;28;20051;-61
2022/09/17 03:55:41;;;;;;;6.65;1.40;;;13.00;48.40;;;;;;5034408;28;20056;-61
2022/09/17 03:58:07;;;;;;;10.23;1.83;;;13.00;99.90;;;;;;5033967;28;20030;-61
2022/09/17 04:00:35;;;;;;;6.30;1.92;;;13.00;99.90;;;;;;5033631;28;20049;-61
2022/09/17 04:03:02;;;;;;;9.07;1.90;;;13.00;1.00;;;;;;5034369;28;20099;-61
2022/09/17 04:05:27;;;;;;;12.23;2.25;;;13.20;1.00;;;;;;5034566;28;20037;-61
2022/09/17 04:07:53;;;;;;;14.18;2.42;;;13.20;41.90;;;;;;5033965;28;20052;-61
2022/09/17 04:10:18;;;;;;;18.08;2.70;;;13.20;19.50;;;;;;5033574;28;20053;-61
2022/09/17 04:12:44;;;;;;;13.32;2.60;;;13.30;1.00;;;;;;5034282;28;20045;-61
2022/09/17 04:15:10;;;;;;;14.82;2.97;;;13.80;99.90;;;;;;5034228;28;20111;-61
2022/09/17 04:17:35;;;;;;;26.63;3.90;;;13.10;99.90;;;;;;5034235;28;20391;-61
2022/09/17 04:20:02;;;;;;;24.75;3.97;;;13.20;99.90;;;;;;5034054;28;20418;-61
2022/09/17 04:22:28;;;;;;;18.92;2.75;;;13.00;1.00;;;;;;5042804;28;20072;-61
2022/09/17 04:24:53;;;;;;;13.20;2.70;;;13.30;99.90;;;;;;5054016;28;20083;-61
2022/09/17 04:27:19;;;;;;;12.07;2.50;;;13.30;99.90;;;;;;5038622;28;20057;-61
2022/09/17 04:29:44;;;;;;;11.68;2.10;;;13.50;99.90;;;;;;5033869;28;20449;-61
2022/09/17 04:32:10;;;;;;;6.63;1.80;;;13.30;99.90;;;;;;5034009;28;20376;-61
2022/09/17 04:34:35;;;;;;;9.93;1.90;;;13.40;99.90;;;;;;5033700;28;20030;-61
2022/09/17 04:37:01;;;;;;;11.55;2.03;;;13.20;99.90;;;;;;5034492;28;20037;-61
2022/09/17 04:39:26;;;;;;;12.00;2.58;;;13.20;99.90;;;;;;5033506;28;20080;-61
2022/09/17 04:41:52;;;;;;;18.02;2.28;;;13.70;99.90;;;;;;5033751;28;20041;-61
2022/09/17 04:44:18;;;;;;;11.32;1.95;;;13.20;99.90;;;;;;5033921;28;20048;-61
2022/09/17 04:46:43;;;;;;;13.15;2.22;;;13.40;1.00;;;;;;5033495;28;20132;-62
2022/09/17 04:49:10;;;;;;;9.48;2.03;;;13.30;1.00;;;;;;5033370;28;20037;-61
2022/09/17 04:51:35;;;;;;;11.18;2.13;;;13.40;99.90;;;;;;5033536;28;20068;-61
2022/09/17 04:54:01;;;;;;;8.00;1.70;;;13.40;99.90;;;;;;5032185;28;20037;-61
2022/09/17 04:56:26;;;;;;;6.55;1.60;;;13.60;99.90;;;;;;5031908;28;20033;-61
2022/09/17 04:58:52;;;;;;;14.95;2.75;;;13.60;1.00;;;;;;5028221;28;20041;-61
2022/09/17 05:01:17;;;;;;;12.43;3.25;;;13.60;1.00;;;;;;5033473;28;20056;-61
2022/09/17 05:03:44;;;;;;;15.13;2.00;;;13.50;24.50;;;;;;5032916;28;20037;-61
2022/09/17 05:06:10;;;;;;;9.38;1.60;;;13.20;67.40;;;;;;5033128;28;20040;-61
2022/09/17 05:08:36;;;;;;;10.18;1.80;;;13.10;99.90;;;;;;5032930;28;20120;-61
2022/09/17 05:11:02;;;;;;;13.82;1.92;;;13.00;81.50;;;;;;5031584;28;20058;-62
2022/09/17 05:13:27;;;;;;;9.55;1.90;;;13.00;99.90;;;;;;5033218;28;20206;-61
2022/09/17 05:15:55;;;;;;;7.75;1.67;;;13.00;99.90;;;;;;5032817;28;20072;-61
2022/09/17 05:18:21;;;;;;;6.65;1.70;;;13.10;41.20;;;;;;5033546;28;20045;-61
2022/09/17 05:20:47;;;;;;;6.13;1.25;;;13.10;1.00;;;;;;5031947;28;20087;-61
2022/09/17 05:23:12;;;;;;;6.43;1.73;;;13.10;99.90;;;;;;5032693;28;20041;-61
2022/09/17 05:25:38;;;;;;;9.23;1.98;;;13.10;99.90;;;;;;5032325;28;20091;-61
2022/09/17 05:28:04;;;;;;;8.07;1.65;;;13.30;99.90;;;;;;5036358;28;20048;-61
2022/09/17 05:30:30;;;;;;;7.55;1.52;;;13.30;1.00;;;;;;5043259;28;20053;-61
2022/09/17 05:33:03;;;;;;;4.53;1.13;;;13.30;99.90;;;;;;5033060;28;20080;-61
2022/09/17 05:35:30;;;;;;;5.78;1.10;;;13.20;1.00;;;;;;5032561;28;20075;-61
2022/09/17 05:37:57;;;;;;;5.63;1.23;;;13.20;99.90;;;;;;5033073;28;20470;-61
2022/09/17 05:40:24;;;;;;;9.52;1.42;;;13.00;24.40;;;;;;5032533;28;20045;-61
2022/09/17 05:42:50;;;;;;;4.78;1.65;;;13.10;99.90;;;;;;5032520;28;20385;-61
2022/09/17 05:45:15;;;;;;;14.15;1.67;;;13.10;99.90;;;;;;5031995;28;20036;-61
2022/09/17 05:47:41;;;;;;;11.98;2.10;;;12.90;1.00;;;;;;5032917;28;20030;-61
2022/09/17 05:50:07;;;;;;;12.02;2.22;;;12.70;99.90;;;;;;5032664;28;20188;-61
2022/09/17 05:52:32;;;;;;;8.18;1.30;;;12.90;13.30;;;;;;5018638;28;20443;-61
2022/09/17 05:54:58;;;;;;;4.35;0.88;;;12.90;95.80;;;;;;5032098;28;20087;-61
2022/09/17 05:57:24;;;;;;;7.47;1.50;;;12.70;99.90;;;;;;5032152;28;20426;-61
2022/09/17 05:59:49;;;;;;;8.32;1.58;;;12.70;99.90;;;;;;5032458;28;20067;-61
2022/09/17 06:02:15;;;;;;;8.10;2.22;;;12.60;1.00;;;;;;5032233;28;20430;-61
2022/09/17 06:04:40;;;;;;;10.48;1.52;;;12.30;99.90;;;;;;5032117;28;20398;-61
2022/09/17 06:07:07;;;;;;;13.13;1.90;;;12.60;99.90;;;;;;5031954;28;20490;-61
2022/09/17 06:09:35;;;;;;;7.40;1.70;;;12.40;1.00;;;;;;5014349;28;20049;-61
2022/09/17 06:12:01;;;;;;;6.65;1.38;;;12.60;1.00;;;;;;5031377;28;20041;-61
2022/09/17 06:14:26;;;;;;;11.55;2.03;;;12.70;99.90;;;;;;5032416;28;20052;-61
2022/09/17 06:16:52;;;;;;;9.02;1.98;;;12.80;1.00;;;;;;5030796;28;20483;-61
2022/09/17 06:19:17;;;;;;;13.55;2.30;;;12.80;1.00;;;;;;5032286;28;20029;-61
2022/09/17 06:21:43;;;;;;;8.82;1.75;;;13.20;99.90;;;;;;5031167;28;20033;-61
2022/09/17 06:24:09;;;;;;;10.45;1.65;;;13.20;99.90;;;;;;5031751;28;20096;-61
2022/09/17 06:26:35;;;;;;;4.10;1.27;;;13.70;99.90;;;;;;5031348;28;20041;-61
2022/09/17 06:29:00;;;;;;;6.80;1.50;;;13.70;99.90;;;;;;5032189;28;20072;-61
2022/09/17 06:31:26;;;;;;;6.97;2.42;;;13.70;99.90;;;;;;5031175;28;20073;-61
2022/09/17 06:33:51;;;;;;;13.82;4.75;;;13.40;35.80;;;;;;5013543;28;20033;-61
2022/09/17 06:36:17;;;;;;;5.80;1.60;;;13.40;1.00;;;;;;5030817;28;20025;-61
2022/09/17 06:38:44;;;;;;;10.38;1.80;;;13.20;1.00;;;;;;5031659;28;20056;-62
2022/09/17 06:41:09;;;;;;;14.30;2.03;;;12.80;99.90;;;;;;5031289;28;20495;-61
2022/09/17 06:43:35;;;;;;;14.65;2.42;;;12.30;15.20;;;;;;5031367;28;20084;-61
2022/09/17 06:46:04;;;;;;;11.27;2.05;;;12.50;1.00;;;;;;5031107;28;20033;-62
2022/09/17 06:48:32;;;;;;;19.50;2.30;;;12.10;99.90;;;;;;5031404;28;20052;-61
2022/09/17 06:51:04;;;;;;;22.13;3.63;;;12.00;99.90;;;;;;5013417;28;20041;-62
2022/09/17 06:53:30;;;;;;;18.13;2.20;;;12.00;99.90;;;;;;5031302;28;20033;-62
2022/09/17 06:55:57;;;;;;;11.95;2.00;;;12.00;99.90;;;;;;5030774;28;20478;-62
2022/09/17 06:58:23;;;;;;;8.27;2.45;;;12.40;99.90;;;;;;5015731;28;20373;-62
2022/09/17 07:00:49;;;;;;;13.90;2.08;;;12.90;99.90;;;;;;5024448;28;20033;-62
2022/09/17 07:03:14;;;;;;;11.95;2.13;;;13.20;99.90;;;;;;5031202;28;20037;-62
2022/09/17 07:05:42;;;;;;;5.97;1.27;;;13.30;99.90;;;;;;5031001;28;20083;-62
2022/09/17 07:08:09;;;;;;;10.23;2.13;;;13.40;99.90;;;;;;5028584;28;20041;-62
2022/09/17 07:10:35;;;;;;;16.90;2.33;;;13.30;99.90;;;;;;5030387;28;20514;-62
2022/09/17 07:13:01;;;;;;;6.57;1.52;;;13.30;99.90;;;;;;5013535;28;20045;-62
2022/09/17 07:15:27;;;;;;;16.85;2.05;;;13.40;99.90;;;;;;5030973;28;20087;-62
2022/09/17 07:17:53;;;;;;;12.70;2.05;;;13.40;99.90;;;;;;5031120;28;20451;-61
2022/09/17 07:20:18;;;;;;;15.93;2.63;;;13.20;99.90;;;;;;5031117;28;20033;-61
2022/09/17 07:22:44;;;;;;;11.45;2.08;;;13.50;99.90;;;;;;5030970;28;20041;-61
2022/09/17 07:25:10;;;;;;;10.27;1.60;;;13.50;99.90;;;;;;5030364;28;20041;-62
2022/09/17 07:27:35;;;;;;;8.07;1.67;;;13.50;99.90;;;;;;5032880;28;20037;-61
2022/09/17 07:30:01;;;;;;;6.13;1.15;;;13.70;99.90;;;;;;5035084;28;20483;-62
2022/09/17 07:32:29;;;;;;;11.63;1.70;;;14.10;99.90;;;;;;5035062;28;20530;-61
2022/09/17 07:34:55;;;;;;;9.10;2.08;;;14.30;99.90;;;;;;5034930;28;20557;-61
2022/09/17 07:37:20;;;;;;;14.95;1.90;;;14.60;99.90;;;;;;5034947;28;20034;-61
2022/09/17 07:39:46;;;;;;;11.73;2.05;;;14.10;99.90;;;;;;5034492;28;20112;-61
2022/09/17 07:42:11;;;;;;;16.17;2.78;;;13.90;99.90;;;;;;5033284;28;20037;-62
2022/09/17 07:44:37;;;;;;;8.77;2.22;;;13.70;99.90;;;;;;5034888;28;20041;-62
2022/09/17 07:47:03;;;;;;;10.05;1.98;;;13.40;99.90;;;;;;5017004;28;20577;-61
2022/09/17 07:49:30;;;;;;;23.35;3.10;;;12.70;99.90;;;;;;5034906;28;20052;-62
2022/09/17 07:51:55;;;;;;;30.98;3.22;;;12.30;99.90;;;;;;5034771;28;20052;-62
2022/09/17 07:54:21;;;;;;;19.13;2.72;;;12.40;99.90;;;;;;5034911;28;20041;-62
2022/09/17 07:56:47;;;;;;;15.00;2.90;;;12.50;99.90;;;;;;5030851;28;20049;-62
2022/09/17 07:59:12;;;;;;;18.65;2.88;;;12.20;99.90;;;;;;4997444;28;20033;-62
2022/09/17 08:01:38;;;;;;;16.90;3.17;;;12.30;99.90;;;;;;5016247;28;20041;-62
2022/09/17 08:04:04;;;;;;;18.60;2.85;;;12.80;99.90;;;;;;5034818;28;20037;-62
2022/09/17 08:06:30;;;;;;;11.18;2.13;;;13.90;99.90;;;;;;5016542;28;20049;-62
2022/09/17 08:08:58;;;;;;;17.92;2.83;;;14.40;99.90;;;;;;5034442;28;20553;-62
2022/09/17 08:11:29;;;;;;;7.85;1.85;;;14.80;99.90;;;;;;5015916;28;20053;-62
2022/09/17 08:13:55;;;;;;;10.07;1.48;;;14.80;99.90;;;;;;5034085;28;20517;-62
2022/09/17 08:16:21;;;;;;;21.50;2.88;;;15.10;99.90;;;;;;5034134;28;20075;-62
2022/09/17 08:18:48;;;;;;;15.32;2.72;;;14.70;99.90;;;;;;5034278;28;20034;-62
2022/09/17 08:21:17;;;;;;;10.88;2.00;;;13.70;99.90;;;;;;5034252;28;20376;-62
2022/09/17 08:23:43;;;;;;;12.23;1.95;;;13.50;99.90;;;;;;5033558;28;20372;-62
2022/09/17 08:26:15;;;;;;;12.73;2.22;;;13.00;99.90;;;;;;5034063;28;20495;-62
2022/09/17 08:28:46;;;;;;;6.72;1.70;;;13.50;99.90;;;;;;5034394;28;20402;-62
2022/09/17 08:31:12;;;;;;;14.63;2.85;;;13.60;99.90;;;;;;5033824;28;20041;-62
2022/09/17 08:33:39;;;;;;;8.50;1.55;;;13.70;99.90;;;;;;5033891;28;20117;-62
2022/09/17 08:36:07;;;;;;;6.40;1.73;;;14.20;99.90;;;;;;5033551;28;20427;-62
2022/09/17 08:38:36;;;;;;;7.75;1.40;;;14.50;99.90;;;;;;5032842;28;20047;-62
2022/09/17 08:41:04;;;;;;;5.65;1.30;;;14.80;99.90;;;;;;5036565;28;20033;-62
2022/09/17 08:43:35;;;;;;;7.97;1.67;;;14.90;99.90;;;;;;5037613;28;20080;-62
2022/09/17 08:46:01;;;;;;;17.33;2.38;;;14.90;99.90;;;;;;5033397;28;20072;-62
2022/09/17 08:48:35;;;;;;;8.65;1.70;;;15.20;99.90;;;;;;5033156;28;20073;-62
2022/09/17 08:51:09;;;;;;;6.38;1.70;;;15.30;99.90;;;;;;5027374;28;20467;-62
2022/09/17 08:53:55;;;;;;;2.85;1.05;;;15.50;99.90;;;;;;5031497;28;20375;-62
2022/09/17 08:56:21;;;;;;;7.43;1.35;;;15.20;1.00;;;;;;5033317;28;20037;-62
2022/09/17 08:59:07;;;;;;;7.78;1.52;;;14.80;1.00;;;;;;5031226;28;20087;-62
2022/09/17 09:01:51;;;;;;;8.35;1.60;;;14.90;1.00;;;;;;5033493;28;20052;-62
2022/09/17 09:05:01;;;;;;;14.43;2.20;;;14.70;7.30;;;;;;5033854;28;20091;-62
2022/09/17 09:07:33;;;;;;;7.15;2.33;;;14.80;1.00;;;;;;5027150;28;20041;-62
2022/09/17 09:10:18;;;;;;;11.52;2.17;;;15.10;1.00;;;;;;5033059;28;20072;-62
2022/09/17 09:12:44;;;;;;;11.57;2.28;;;14.80;95.40;;;;;;5033623;28;20057;-62
2022/09/17 09:15:35;;;;;;;9.50;2.10;;;15.30;99.90;;;;;;5032915;28;20479;-62
2022/09/17 09:18:14;;;;;;;8.35;2.13;;;15.10;99.90;;;;;;5032982;28;20411;-62
2022/09/17 09:20:47;;;;;;;7.53;1.40;;;15.10;1.00;;;;;;5033342;28;20080;-62
2022/09/17 09:23:29;;;;;;;15.25;2.67;;;14.70;99.90;;;;;;5033459;28;20044;-61
2022/09/17 09:26:43;;;;;;;19.67;2.83;;;13.80;99.90;;;;;;5032624;28;20041;-62
2022/09/17 09:29:21;;;;;;;10.65;2.00;;;13.50;99.90;;;;;;5010663;28;20085;-61
2022/09/17 09:32:06;;;;;;;13.23;2.10;;;13.70;99.90;;;;;;5031251;28;20049;-61
2022/09/17 09:34:34;;;;;;;11.98;1.73;;;13.70;99.90;;;;;;5032726;28;20304;-62
2022/09/17 09:37:44;;;;;;;6.68;1.73;;;13.50;99.90;;;;;;5032599;28;20068;-62
2022/09/17 09:40:41;;;;;;;6.25;1.50;;;14.10;99.90;;;;;;4997337;28;20171;-62
2022/09/17 09:43:27;;;;;;;10.45;1.88;;;14.20;99.90;;;;;;5032815;28;20037;-62
2022/09/17 09:46:03;;;;;;;6.28;1.20;;;14.90;99.90;;;;;;5032475;28;20112;-62
2022/09/17 09:49:08;;;;;;;8.35;1.50;;;14.90;99.90;;;;;;5037451;28;20044;-62
2022/09/17 09:52:01;;;;;;;5.68;1.40;;;14.90;99.90;;;;;;5031993;28;20041;-62
2022/09/17 09:54:43;;;;;;;9.18;1.65;;;15.20;99.90;;;;;;5017894;28;20091;-62
2022/09/17 09:57:18;;;;;;;2.35;0.90;;;14.70;99.90;;;;;;5012504;28;20127;-62
2022/09/17 09:59:43;;;;;;;6.22;1.48;;;14.40;52.80;;;;;;5031735;28;20107;-62
2022/09/17 10:02:10;;;;;;;7.60;1.02;;;14.60;1.00;;;;;;5032295;28;20049;-62
2022/09/17 10:04:36;;;;;;;4.32;1.30;;;14.50;1.00;;;;;;5032484;28;20037;-62
2022/09/17 10:07:07;;;;;;;7.97;1.80;;;14.10;99.90;;;;;;5032534;28;20107;-62
2022/09/17 10:09:36;;;;;;;5.88;1.30;;;14.00;1.00;;;;;;5031861;28;20128;-62
2022/09/17 10:12:09;;;;;;;10.55;1.50;;;15.30;13.30;;;;;;5032103;28;20064;-62
2022/09/17 10:14:37;;;;;;;11.02;1.88;;;14.20;99.90;;;;;;5031826;28;20080;-62
2022/09/17 10:17:16;;;;;;;9.27;1.80;;;14.50;99.90;;;;;;5032023;28;20841;-62
2022/09/17 10:19:44;;;;;;;8.98;1.77;;;14.30;99.90;;;;;;5031699;28;20052;-62
2022/09/17 10:22:22;;;;;;;7.47;1.38;;;14.20;99.90;;;;;;5031864;28;20073;-62
2022/09/17 10:24:48;;;;;;;9.27;1.70;;;14.20;99.90;;;;;;5031607;28;20046;-61
2022/09/17 10:27:17;;;;;;;10.02;2.00;;;13.60;99.90;;;;;;5031803;28;20108;-61
2022/09/17 10:29:49;;;;;;;14.13;2.42;;;13.20;99.90;;;;;;5031417;28;20146;-61
2022/09/17 10:32:17;;;;;;;12.40;2.30;;;13.10;99.90;;;;;;5010669;28;20053;-61
2022/09/17 10:35:03;;;;;;;17.50;3.15;;;12.90;99.90;;;;;;5014918;28;20048;-61
2022/09/17 10:37:33;;;;;;;17.98;2.83;;;13.10;99.90;;;;;;5031658;28;20056;-62
2022/09/17 10:39:58;;;;;;;13.07;2.63;;;13.70;99.90;;;;;;5031514;28;20128;-62
2022/09/17 10:42:24;;;;;;;19.25;3.50;;;13.80;99.90;;;;;;5031738;28;20073;-61
2022/09/17 10:44:51;;;;;;;16.85;3.17;;;13.70;99.90;;;;;;5031426;28;20056;-62
2022/09/17 10:47:27;;;;;;;20.98;2.88;;;13.80;99.90;;;;;;4997301;28;20398;-62
2022/09/17 10:50:16;;;;;;;22.00;3.20;;;14.20;99.90;;;;;;5030965;28;20041;-62
2022/09/17 10:52:54;;;;;;;10.52;2.20;;;14.70;99.90;;;;;;5030445;28;20045;-62
2022/09/17 10:55:56;;;;;;;13.88;2.22;;;15.10;99.90;;;;;;5029406;28;20065;-62
2022/09/17 10:58:49;;;;;;;5.22;1.88;;;15.30;99.90;;;;;;5017152;28;20045;-62
2022/09/17 11:01:54;;;;;;;11.73;2.03;;;15.60;99.90;;;;;;5013155;28;20041;-62
2022/09/17 11:04:20;;;;;;;10.30;2.30;;;15.20;99.90;;;;;;5031461;28;20453;-62
2022/09/17 11:07:00;;;;;;;11.82;2.03;;;14.40;99.90;;;;;;5030900;28;20128;-62
2022/09/17 11:09:56;;;;;;;31.83;4.40;;;14.00;99.90;;;;;;5030766;28;20076;-62
2022/09/17 11:12:54;;;;;;;15.43;2.78;;;13.60;99.90;;;;;;5011564;28;20046;-62
2022/09/17 11:15:35;;;;;;;10.57;2.03;;;14.10;99.90;;;;;;4994531;28;20042;-62
2022/09/17 11:18:25;;;;;;;6.00;1.60;;;14.70;99.90;;;;;;5013194;28;20045;-61
2022/09/17 11:21:07;;;;;;;7.25;1.60;;;14.40;99.90;;;;;;5030936;28;20076;-62
2022/09/17 11:23:48;;;;;;;9.95;1.90;;;14.60;99.90;;;;;;5031261;28;20096;-62
2022/09/17 11:26:41;;;;;;;11.02;2.20;;;15.00;1.00;;;;;;5030456;28;20045;-62
2022/09/17 11:29:30;;;;;;;16.10;3.03;;;15.30;99.90;;;;;;5030767;28;20033;-62
2022/09/17 11:32:13;;;;;;;10.63;2.42;;;15.40;99.90;;;;;;5026319;28;20526;-62
2022/09/17 11:34:58;;;;;;;15.18;2.45;;;15.50;99.90;;;;;;5031126;28;20061;-62
2022/09/17 11:37:37;;;;;;;11.48;3.22;;;15.70;99.90;;;;;;5031006;28;20050;-62
2022/09/17 11:40:16;;;;;;;10.88;1.77;;;15.70;99.90;;;;;;5030559;28;20053;-62
2022/09/17 11:42:46;;;;;;;6.05;1.52;;;15.30;1.00;;;;;;5031150;28;20049;-61
2022/09/17 11:45:18;;;;;;;13.68;2.63;;;14.60;99.90;;;;;;5030557;28;20096;-62
2022/09/17 11:47:53;;;;;;;8.02;2.55;;;14.80;1.00;;;;;;5030545;28;20045;-62
2022/09/17 11:50:26;;;;;;;9.70;2.30;;;14.90;1.00;;;;;;5013076;28;20515;-62
2022/09/17 11:52:56;;;;;;;12.98;1.80;;;14.70;99.90;;;;;;5030919;28;20480;-62
2022/09/17 11:55:30;;;;;;;10.60;1.92;;;14.40;80.90;;;;;;5030472;28;20649;-62
2022/09/17 11:58:01;;;;;;;10.45;2.40;;;14.30;99.90;;;;;;5012545;28;20034;-62
2022/09/17 12:00:30;;;;;;;9.65;2.13;;;14.40;99.90;;;;;;5029505;28;20037;-62
2022/09/17 12:03:09;;;;;;;12.25;2.45;;;14.80;99.90;;;;;;5030868;28;20053;-62
2022/09/17 12:05:49;;;;;;;6.95;1.38;;;15.20;99.90;;;;;;5030643;28;20029;-62
2022/09/17 12:08:28;;;;;;;11.00;1.80;;;15.50;1.00;;;;;;5030709;28;20514;-62
2022/09/17 12:10:59;;;;;;;2.65;1.05;;;15.80;99.90;;;;;;5018821;28;20400;-62
2022/09/17 12:13:55;;;;;;;7.07;1.70;;;15.70;56.90;;;;;;5032355;28;20068;-62
2022/09/17 12:16:41;;;;;;;8.27;1.75;;;15.70;41.70;;;;;;5034123;28;20029;-63
2022/09/17 12:19:14;;;;;;;6.55;1.30;;;15.70;99.90;;;;;;5016561;28;20391;-63
2022/09/17 12:22:03;;;;;;;4.05;1.10;;;15.90;99.90;;;;;;5034136;28;20087;-63
2022/09/17 12:24:31;;;;;;;4.75;1.40;;;15.90;99.90;;;;;;5034534;28;20053;-63
2022/09/17 12:27:08;;;;;;;9.60;2.30;;;15.80;99.90;;;;;;5016059;28;20399;-63
2022/09/17 12:30:03;;;;;;;7.63;1.55;;;15.80;1.00;;;;;;5034029;28;20509;-63
2022/09/17 12:32:49;;;;;;;6.10;1.23;;;15.70;1.00;;;;;;5033974;28;20434;-63
2022/09/17 12:35:35;;;;;;;8.60;1.63;;;15.70;99.90;;;;;;5034100;28;20116;-63
2022/09/17 12:38:28;;;;;;;5.50;1.23;;;15.60;72.80;;;;;;5023438;28;20038;-63
2022/09/17 12:40:56;;;;;;;6.78;1.52;;;15.80;1.00;;;;;;5016004;28;20045;-63
2022/09/17 12:43:36;;;;;;;10.45;2.25;;;16.00;1.00;;;;;;5016495;28;20081;-63
2022/09/17 12:46:09;;;;;;;8.32;1.77;;;16.10;1.00;;;;;;5033702;28;20041;-63
2022/09/17 12:49:00;;;;;;;4.90;1.90;;;15.80;1.00;;;;;;5033716;28;20041;-63
2022/09/17 12:51:43;;;;;;;6.57;1.67;;;15.50;48.50;;;;;;5033540;28;20057;-63
2022/09/17 12:54:29;;;;;;;11.70;2.05;;;15.00;99.90;;;;;;5033837;28;20079;-63
2022/09/17 12:56:59;;;;;;;6.15;1.73;;;14.70;99.90;;;;;;5033017;28;20513;-63
2022/09/17 12:59:33;;;;;;;7.75;1.40;;;14.20;1.00;;;;;;5033201;28;20037;-62
2022/09/17 13:02:14;;;;;;;7.38;1.70;;;13.40;99.90;;;;;;5033773;28;20041;-62
2022/09/17 13:04:58;;;;;;;11.80;1.67;;;12.80;95.20;;;;;;5033396;28;20029;-62
2022/09/17 13:07:52;;;;;;;15.20;1.90;;;12.30;99.90;;;;;;5015691;28;20075;-63
2022/09/17 13:10:46;;;;;;;19.88;2.20;;;12.20;99.90;;;;;;5033003;28;20132;-62
2022/09/17 13:13:28;;;;;;;12.27;1.88;;;12.40;99.90;;;;;;5033542;28;20053;-62